createdAt,value
2023-12-09T00:00:38.324Z,68.86
2023-12-09T00:05:41.601Z,68.72
2023-12-09T00:10:44.513Z,68.89
2023-12-09T00:15:47.613Z,68.86
2023-12-09T00:20:50.566Z,68.88
2023-12-09T00:25:57.684Z,68.67
2023-12-09T00:31:02.417Z,68.81
2023-12-09T00:36:06.453Z,68.81
2023-12-09T00:41:09.369Z,68.64
2023-12-09T00:46:12.574Z,68.62
2023-12-09T00:51:15.783Z,68.76
2023-12-09T00:56:33.225Z,68.58
2023-12-09T01:01:38.518Z,68.74
2023-12-09T01:06:41.620Z,68.86
2023-12-09T01:11:45.803Z,68.69
2023-12-09T01:16:49.650Z,68.61
2023-12-09T01:21:56.799Z,68.72
2023-12-09T01:27:00.804Z,68.71
2023-12-09T01:32:04.198Z,68.62
2023-12-09T01:37:09.720Z,68.69
2023-12-09T01:42:12.711Z,68.84
2023-12-09T01:47:16.576Z,68.64
2023-12-09T01:52:20.178Z,68.70
2023-12-09T01:57:23.064Z,68.86
2023-12-09T02:02:26.327Z,68.72
2023-12-09T02:07:29.422Z,68.85
2023-12-09T02:12:31.970Z,68.66
2023-12-09T02:18:01.389Z,68.66
2023-12-09T02:23:23.997Z,68.58
2023-12-09T02:28:28.987Z,68.58
2023-12-09T02:33:32.637Z,68.59
2023-12-09T02:38:36.448Z,68.82
2023-12-09T02:43:39.005Z,68.59
2023-12-09T02:48:41.733Z,68.85
2023-12-09T02:53:45.845Z,68.64
2023-12-09T02:58:48.834Z,68.77
2023-12-09T03:03:51.527Z,68.93
2023-12-09T03:08:54.172Z,68.59
2023-12-09T03:13:56.693Z,68.92
2023-12-09T03:19:01.845Z,68.78
2023-12-09T03:24:04.539Z,68.87
2023-12-09T03:29:07.166Z,68.95
2023-12-09T03:34:09.804Z,69.00
2023-12-09T03:39:12.879Z,68.76
2023-12-09T03:44:15.478Z,68.94
2023-12-09T03:49:18.109Z,68.91
2023-12-09T03:54:20.824Z,68.99
2023-12-09T03:59:23.454Z,68.90
2023-12-09T04:04:26.052Z,68.86
2023-12-09T04:09:28.882Z,68.92
2023-12-09T04:14:31.457Z,68.97
2023-12-09T04:19:34.506Z,68.92
2023-12-09T04:24:37.245Z,68.74
2023-12-09T04:29:39.957Z,68.72
2023-12-09T04:34:42.588Z,68.82
2023-12-09T04:39:45.281Z,68.64
2023-12-09T04:44:49.521Z,68.68
2023-12-09T04:49:53.814Z,68.47
2023-12-09T04:54:56.543Z,68.61
2023-12-09T04:59:59.268Z,68.59
2023-12-09T05:05:01.884Z,68.55
2023-12-09T05:10:05.985Z,68.70
2023-12-09T05:20:45.666Z,68.43
2023-12-09T05:25:51.074Z,68.58
2023-12-09T05:30:53.666Z,68.64
2023-12-09T05:35:56.279Z,68.71
2023-12-09T05:40:59.166Z,68.42
2023-12-09T05:51:46.797Z,68.75
2023-12-09T05:56:53.137Z,68.81
2023-12-09T06:01:56.679Z,68.70
2023-12-09T06:06:59.289Z,68.60
2023-12-09T06:12:01.921Z,68.72
2023-12-09T06:17:04.685Z,68.84
2023-12-09T06:22:07.332Z,68.91
2023-12-09T06:27:10.430Z,68.88
2023-12-09T06:32:14.173Z,68.69
2023-12-09T06:37:16.841Z,68.80
2023-12-09T06:42:19.506Z,68.83
2023-12-09T06:47:22.112Z,68.91
2023-12-09T06:52:24.926Z,68.82
2023-12-09T06:57:28.478Z,68.99
2023-12-09T07:02:41.046Z,68.89
2023-12-09T07:07:52.524Z,68.95
2023-12-09T07:12:55.560Z,68.95
2023-12-09T07:17:58.182Z,69.27
2023-12-09T07:23:01.145Z,69.42
2023-12-09T07:28:03.684Z,69.53
2023-12-09T07:33:06.518Z,69.33
2023-12-09T07:38:10.031Z,69.33
2023-12-09T07:43:12.567Z,69.59
2023-12-09T07:48:15.335Z,69.28
2023-12-09T07:53:18.175Z,69.18
2023-12-09T07:58:20.803Z,69.04
2023-12-09T08:03:23.416Z,69.05
2023-12-09T08:08:25.975Z,68.86
2023-12-09T08:13:28.717Z,68.65
2023-12-09T08:18:31.785Z,68.82
2023-12-09T08:23:34.674Z,68.83
2023-12-09T08:28:37.828Z,69.02
2023-12-09T08:33:41.613Z,68.80
2023-12-09T08:38:44.279Z,68.95
2023-12-09T08:43:47.014Z,68.79
2023-12-09T08:48:50.101Z,68.99
2023-12-09T08:53:52.718Z,69.03
2023-12-09T08:58:55.274Z,68.99
2023-12-09T09:03:57.992Z,68.72
2023-12-09T09:09:00.578Z,69.00
2023-12-09T09:14:03.217Z,69.32
2023-12-09T09:19:07.347Z,68.83
2023-12-09T09:24:15.634Z,68.80
2023-12-09T09:29:18.140Z,68.65
2023-12-09T09:34:20.813Z,68.81
2023-12-09T09:39:23.587Z,69.03
2023-12-09T09:44:28.812Z,68.70
2023-12-09T09:49:35.355Z,68.62
2023-12-09T09:54:39.582Z,68.39
2023-12-09T09:59:42.182Z,68.39
2023-12-09T10:04:44.879Z,68.20
2023-12-09T10:09:48.348Z,68.06
2023-12-09T10:14:51.308Z,68.12
2023-12-09T10:19:56.983Z,67.95
2023-12-09T10:24:59.726Z,67.92
2023-12-09T10:30:02.779Z,68.05
2023-12-09T10:35:10.936Z,68.13
2023-12-09T10:40:16.745Z,68.18
2023-12-09T10:45:19.344Z,68.27
2023-12-09T10:50:24.167Z,68.13
2023-12-09T10:55:26.902Z,68.07
2023-12-09T11:00:31.871Z,68.00
2023-12-09T11:05:42.322Z,68.07
2023-12-09T11:10:48.713Z,68.21
2023-12-09T11:16:10.470Z,67.81
2023-12-09T11:21:16.486Z,68.17
2023-12-09T11:26:23.870Z,68.07
2023-12-09T11:31:42.792Z,68.06
2023-12-09T11:36:47.532Z,68.08
2023-12-09T11:41:51.287Z,68.09
2023-12-09T11:46:56.539Z,68.14
2023-12-09T11:51:59.526Z,67.94
2023-12-09T11:57:02.220Z,68.11
2023-12-09T12:02:05.218Z,68.06
2023-12-09T12:07:09.333Z,67.87
2023-12-09T12:12:15.887Z,67.99
2023-12-09T12:17:19.441Z,68.02
2023-12-09T12:22:22.341Z,67.95
2023-12-09T12:27:27.812Z,67.96
2023-12-09T12:32:47.853Z,67.97
2023-12-09T12:37:51.145Z,68.09
2023-12-09T12:42:55.496Z,67.99
2023-12-09T12:47:58.256Z,67.93
2023-12-09T12:53:04.266Z,67.94
2023-12-09T12:58:10.449Z,67.96
2023-12-09T13:03:15.318Z,67.79
2023-12-09T13:08:18.915Z,68.06
2023-12-09T13:13:22.290Z,68.11
2023-12-09T13:18:25.773Z,67.97
2023-12-09T13:23:29.121Z,67.96
2023-12-09T13:28:37.726Z,68.09
2023-12-09T13:33:40.865Z,68.21
2023-12-09T13:38:46.670Z,68.24
2023-12-09T13:43:50.856Z,68.19
2023-12-09T13:48:58.436Z,68.09
2023-12-09T13:54:01.577Z,68.26
2023-12-09T13:59:07.910Z,67.91
2023-12-09T14:04:12.456Z,68.05
2023-12-09T14:09:19.447Z,67.89
2023-12-09T14:14:26.568Z,67.98
2023-12-09T14:19:30.233Z,67.99
2023-12-09T14:24:39.861Z,67.97
2023-12-09T14:29:44.063Z,67.88
2023-12-09T14:34:50.319Z,67.85
2023-12-09T14:40:01.658Z,67.98
2023-12-09T14:45:11.107Z,68.10
2023-12-09T14:50:15.035Z,68.07
2023-12-09T14:55:21.987Z,68.04
2023-12-09T15:00:28.846Z,67.98
2023-12-09T15:05:35.942Z,68.08
2023-12-09T15:10:44.754Z,67.93
2023-12-09T15:15:48.176Z,67.80
2023-12-09T15:20:53.885Z,68.01
2023-12-09T15:26:03.530Z,68.00
2023-12-09T15:31:13.761Z,68.07
2023-12-09T15:36:20.600Z,67.71
2023-12-09T15:41:28.356Z,67.99
2023-12-09T15:46:31.930Z,67.93
2023-12-09T15:51:39.613Z,67.86
2023-12-09T15:56:47.253Z,68.09
2023-12-09T16:01:55.279Z,68.15
2023-12-09T16:07:06.510Z,67.93
2023-12-09T16:12:09.403Z,68.20
2023-12-09T16:17:23.165Z,68.14
2023-12-09T16:22:26.251Z,68.21
2023-12-09T16:27:49.412Z,68.09
2023-12-09T16:32:52.406Z,68.00
2023-12-09T16:37:58.042Z,68.17
2023-12-09T16:43:08.939Z,68.40
2023-12-09T16:48:14.362Z,68.35
2023-12-09T16:53:20.918Z,68.23
2023-12-09T16:58:37.728Z,68.46
2023-12-09T17:03:48.075Z,68.50
2023-12-09T17:08:50.753Z,68.35
2023-12-09T17:13:56.982Z,68.33
2023-12-09T17:19:08.201Z,68.52
2023-12-09T17:24:13.041Z,68.46
2023-12-09T17:29:21.495Z,68.67
2023-12-09T17:34:26.693Z,68.71
2023-12-09T17:39:30.349Z,68.56
2023-12-09T17:44:35.039Z,68.62
2023-12-09T17:49:39.294Z,68.64
2023-12-09T17:54:44.642Z,68.64
2023-12-09T18:00:01.362Z,68.58
2023-12-09T18:05:05.327Z,68.68
2023-12-09T18:10:08.809Z,68.48
2023-12-09T18:15:14.323Z,68.59
2023-12-09T18:20:21.140Z,68.59
2023-12-09T18:25:27.076Z,68.62
2023-12-09T18:30:31.842Z,68.70
2023-12-09T18:35:35.899Z,68.88
2023-12-09T18:40:45.196Z,68.80
2023-12-09T18:45:52.186Z,68.77
2023-12-09T18:50:58.089Z,69.04
2023-12-09T18:56:04.186Z,68.84
2023-12-09T19:01:16.262Z,68.90
2023-12-09T19:06:19.488Z,68.76
2023-12-09T19:11:31.592Z,68.86
2023-12-09T19:16:38.768Z,68.92
2023-12-09T19:21:41.948Z,68.99
2023-12-09T19:26:48.168Z,68.74
2023-12-09T19:31:53.046Z,68.99
2023-12-09T19:36:56.281Z,68.99
2023-12-09T19:41:59.267Z,69.04
2023-12-09T19:47:09.409Z,68.95
2023-12-09T19:52:13.640Z,68.95
2023-12-09T19:57:17.424Z,68.69
2023-12-09T20:02:21.565Z,68.96
2023-12-09T20:07:25.303Z,68.86
2023-12-09T20:12:32.413Z,68.97
2023-12-09T20:17:38.293Z,69.10
2023-12-09T20:22:41.071Z,68.93
2023-12-09T20:27:48.141Z,68.93
2023-12-09T20:32:52.513Z,69.05
2023-12-09T20:37:55.765Z,69.09
2023-12-09T20:42:58.590Z,69.10
2023-12-09T20:48:04.726Z,69.02
2023-12-09T20:53:12.780Z,69.27
2023-12-09T20:58:15.312Z,69.11
2023-12-09T21:03:18.108Z,69.09
2023-12-09T21:08:20.726Z,69.00
2023-12-09T21:13:23.509Z,69.17
2023-12-09T21:18:29.383Z,69.26
2023-12-09T21:23:33.453Z,69.28
2023-12-09T21:28:35.962Z,69.29
2023-12-09T21:33:40.952Z,69.16
2023-12-09T21:38:50.268Z,69.25
2023-12-09T21:43:52.949Z,69.39
2023-12-09T21:48:55.668Z,69.32
2023-12-09T21:53:59.121Z,69.21
2023-12-09T21:59:01.706Z,69.42
2023-12-09T22:04:04.578Z,69.43
2023-12-09T22:09:07.683Z,69.52
2023-12-09T22:14:10.217Z,69.55
2023-12-09T22:19:13.877Z,69.53
2023-12-09T22:24:18.924Z,69.58
2023-12-09T22:29:21.503Z,69.56
2023-12-09T22:34:24.240Z,69.53
2023-12-09T22:39:27.283Z,69.60
2023-12-09T22:44:30.403Z,69.55
2023-12-09T22:49:33.268Z,69.75
2023-12-09T22:54:36.120Z,69.63
2023-12-09T22:59:40.144Z,69.68
2023-12-09T23:04:42.796Z,69.66
2023-12-09T23:09:46.177Z,69.64
2023-12-09T23:14:48.688Z,69.94
2023-12-09T23:19:51.211Z,69.66
2023-12-09T23:24:53.758Z,69.90
2023-12-09T23:29:56.356Z,69.94
2023-12-09T23:34:58.852Z,69.87
2023-12-09T23:40:01.512Z,69.94
2023-12-09T23:45:06.202Z,69.96
2023-12-09T23:50:09.196Z,69.91
2023-12-09T23:55:12.040Z,69.96
